Time,TemperatureF,DewpointF,PressureIn,WindDirection,WindDirectionDegrees,WindSpeedMPH,WindSpeedGustMPH,Humidity,HourlyPrecipIn,Conditions,Clouds,dailyrainin,SolarRadiationWatts/m^2,SoftwareType,DateUTC
2013-02-04 00:00:00,15.3,11.9,29.74,NW,312,0.0,0.0,86,0.00,,---,0.00,0.00,VWS V14.00,2013-02-04 05:00:00,
2013-02-04 00:01:00,15.3,11.9,29.74,NW,312,0.0,0.0,86,0.00,,---,0.00,0.00,VWS V14.00,2013-02-04 05:01:00,
2013-02-04 00:06:00,15.3,11.9,29.74,NW,312,0.0,0.0,86,0.00,,---,0.00,0.00,VWS V14.00,2013-02-04 05:06:00,
2013-02-04 00:11:00,15.3,11.9,29.73,NW,312,0.0,0.0,86,0.00,,---,0.00,0.00,VWS V14.00,2013-02-04 05:11:00,
2013-02-04 00:16:00,15.2,11.8,29.73,NW,312,0.0,0.0,86,0.00,,---,0.00,0.00,VWS V14.00,2013-02-04 05:16:00,
2013-02-04 00:21:00,15.2,11.8,29.73,NW,312,0.0,0.0,86,0.00,,---,0.00,0.00,VWS V14.00,2013-02-04 05:21:00,
2013-02-04 00:26:00,15.2,11.8,29.73,NW,312,0.0,0.0,86,0.00,,---,0.00,0.00,VWS V14.00,2013-02-04 05:26:00,
2013-02-04 00:30:00,4.2,0.7,30.00,ESE,108,0.0,0.0,85,0.00,,---,0.00,0.00,VWS V14.00,2013-02-04 05:30:00,
2013-02-04 00:31:00,15.2,11.8,29.73,NW,312,0.0,0.0,86,0.00,,---,0.00,0.00,VWS V14.00,2013-02-04 05:31:00,
2013-02-04 00:36:00,15.2,11.8,29.73,NW,312,0.0,0.0,86,0.00,,---,0.00,0.00,VWS V14.00,2013-02-04 05:36:00,
2013-02-04 00:41:00,15.2,11.8,29.73,NW,312,0.0,0.0,86,0.00,,---,0.00,0.00,VWS V14.00,2013-02-04 05:41:00,
2013-02-04 00:46:00,15.2,11.8,29.73,NW,312,0.0,0.0,86,0.00,,---,0.00,0.00,VWS V14.00,2013-02-04 05:46:00,
2013-02-04 00:51:00,15.2,11.8,29.73,NW,312,0.0,0.0,86,0.00,,---,0.00,0.00,VWS V14.00,2013-02-04 05:51:00,
2013-02-04 00:56:00,15.2,11.8,29.73,NW,312,0.0,0.0,86,0.00,,---,0.00,0.00,VWS V14.00,2013-02-04 05:56:00,
2013-02-04 01:00:00,4.1,0.6,30.00,ESE,108,0.0,2.0,85,0.00,,---,0.00,0.00,VWS V14.00,2013-02-04 06:00:00,
2013-02-04 01:01:00,15.2,11.8,29.73,NW,312,0.0,0.0,86,0.00,,---,0.00,0.00,VWS V14.00,2013-02-04 06:01:00,
2013-02-04 01:06:00,15.2,11.8,29.72,NW,312,0.0,0.0,86,0.00,,---,0.00,0.00,VWS V14.00,2013-02-04 06:06:00,
2013-02-04 01:11:00,15.3,12.1,29.72,NW,312,0.0,0.0,87,0.00,,---,0.00,0.00,VWS V14.00,2013-02-04 06:11:00,
2013-02-04 01:17:00,15.3,12.1,29.72,NW,312,0.0,0.0,87,0.00,,---,0.00,0.00,VWS V14.00,2013-02-04 06:17:00,
2013-02-04 01:22:00,15.3,12.1,29.72,NW,312,0.0,0.0,87,0.00,,---,0.00,0.00,VWS V14.00,2013-02-04 06:22:00,
2013-02-04 01:26:00,15.3,12.1,29.72,NW,312,0.0,1.0,87,0.00,,---,0.00,0.00,VWS V14.00,2013-02-04 06:26:00,
2013-02-04 01:30:00,3.3,-0.2,29.99,ESE,108,0.0,0.0,85,0.00,,---,0.00,0.00,VWS V14.00,2013-02-04 06:30:00,
2013-02-04 01:31:00,15.4,12.2,29.72,NW,312,0.0,1.0,87,0.00,,---,0.00,0.00,VWS V14.00,2013-02-04 06:31:00,
2013-02-04 01:36:00,15.4,12.2,29.72,NW,312,0.0,1.0,87,0.00,,---,0.00,0.00,VWS V14.00,2013-02-04 06:36:00,
2013-02-04 01:41:00,15.5,12.3,29.72,NW,312,0.0,1.0,87,0.00,,---,0.00,0.00,VWS V14.00,2013-02-04 06:41:00,
2013-02-04 01:47:00,15.5,12.3,29.72,NW,316,0.0,0.0,87,0.00,,---,0.00,0.00,VWS V14.00,2013-02-04 06:47:00,
2013-02-04 01:52:00,15.8,12.6,29.72,NW,316,0.0,2.0,87,0.00,,---,0.00,0.00,VWS V14.00,2013-02-04 06:52:00,
2013-02-04 01:57:00,15.9,12.7,29.72,NW,316,0.0,2.0,87,0.00,,---,0.00,0.00,VWS V14.00,2013-02-04 06:57:00,
2013-02-04 02:00:00,2.2,-1.3,29.99,ESE,108,0.0,0.0,85,0.00,,---,0.00,0.00,VWS V14.00,2013-02-04 07:00:00,
2013-02-04 02:02:00,15.9,12.7,29.72,NW,316,0.0,2.0,87,0.00,,---,0.00,0.00,VWS V14.00,2013-02-04 07:02:00,
2013-02-04 02:07:00,15.9,12.7,29.72,NW,316,0.0,2.0,87,0.00,,---,0.00,0.00,VWS V14.00,2013-02-04 07:07:00,
2013-02-04 02:12:00,15.9,12.7,29.72,NW,316,0.0,2.0,87,0.00,,---,0.00,0.00,VWS V14.00,2013-02-04 07:12:00,
2013-02-04 02:17:00,16.0,12.6,29.72,NW,316,0.0,1.0,86,0.00,,---,0.00,0.00,VWS V14.00,2013-02-04 07:17:00,
2013-02-04 02:22:00,16.0,12.6,29.72,NW,316,0.0,2.0,86,0.00,,---,0.00,0.00,VWS V14.00,2013-02-04 07:22:00,
2013-02-04 02:27:00,16.1,12.7,29.72,NW,316,1.0,2.0,86,0.00,,---,0.00,0.00,VWS V14.00,2013-02-04 07:27:00,
2013-02-04 02:30:00,2.5,-1.0,29.98,ESE,108,0.0,0.0,85,0.00,,---,0.00,0.00,VWS V14.00,2013-02-04 07:30:00,
2013-02-04 02:32:00,16.1,12.7,29.72,NW,316,1.0,2.0,86,0.00,,---,0.00,0.00,VWS V14.00,2013-02-04 07:32:00,
2013-02-04 02:37:00,16.2,12.8,29.72,NW,316,0.0,2.0,86,0.00,,---,0.00,0.00,VWS V14.00,2013-02-04 07:37:00,
2013-02-04 02:42:00,16.2,12.8,29.72,NW,316,0.0,2.0,86,0.00,,---,0.00,0.00,VWS V14.00,2013-02-04 07:42:00,
2013-02-04 02:47:00,16.2,12.8,29.72,NW,316,0.0,0.0,86,0.00,,---,0.00,0.00,VWS V14.00,2013-02-04 07:47:00,
2013-02-04 02:52:00,16.2,12.8,29.72,NW,316,0.0,1.0,86,0.00,,---,0.00,0.00,VWS V14.00,2013-02-04 07:52:00,
2013-02-04 02:57:00,16.3,12.9,29.71,NW,316,0.0,1.0,86,0.00,,---,0.00,0.00,VWS V14.00,2013-02-04 07:57:00,
2013-02-04 03:00:00,1.9,-1.6,29.98,ESE,108,0.0,0.0,85,0.00,,---,0.00,0.00,VWS V14.00,2013-02-04 08:00:00,
2013-02-04 03:02:00,16.2,12.8,29.71,NW,316,0.0,1.0,86,0.00,,---,0.00,0.00,VWS V14.00,2013-02-04 08:02:00,
2013-02-04 03:07:00,16.3,12.9,29.71,NW,316,0.0,1.0,86,0.00,,---,0.00,0.00,VWS V14.00,2013-02-04 08:07:00,
2013-02-04 03:12:00,16.3,12.9,29.71,NW,316,0.0,1.0,86,0.00,,---,0.00,0.00,VWS V14.00,2013-02-04 08:12:00,
2013-02-04 03:17:00,16.2,12.8,29.71,NW,316,0.0,0.0,86,0.00,,---,0.00,0.00,VWS V14.00,2013-02-04 08:17:00,
2013-02-04 03:22:00,16.2,12.8,29.71,NW,316,0.0,1.0,86,0.00,,---,0.00,0.00,VWS V14.00,2013-02-04 08:22:00,
2013-02-04 03:27:00,16.1,12.4,29.71,NW,316,0.0,2.0,85,0.00,,---,0.00,0.00,VWS V14.00,2013-02-04 08:27:00,
2013-02-04 03:30:00,1.7,-1.8,29.97,ESE,108,0.0,0.0,85,0.00,,---,0.00,0.00,VWS V14.00,2013-02-04 08:30:00,
2013-02-04 03:32:00,16.0,12.3,29.72,NW,316,0.0,4.0,85,0.00,,---,0.00,0.00,VWS V14.00,2013-02-04 08:32:00,
2013-02-04 03:37:00,15.9,12.2,29.72,NW,316,0.0,4.0,85,0.00,,---,0.00,0.00,VWS V14.00,2013-02-04 08:37:00,
2013-02-04 03:42:00,15.8,12.1,29.72,NW,316,0.0,4.0,85,0.00,,---,0.00,0.00,VWS V14.00,2013-02-04 08:42:00,
2013-02-04 03:47:00,15.7,12.0,29.72,NW,316,1.0,2.0,85,0.00,,---,0.00,0.00,VWS V14.00,2013-02-04 08:47:00,
2013-02-04 03:52:00,15.7,12.0,29.72,WSW,247,0.0,2.0,85,0.00,,---,0.00,0.00,VWS V14.00,2013-02-04 08:52:00,
2013-02-04 03:57:00,15.7,12.0,29.72,NW,319,3.0,6.0,85,0.00,,---,0.00,0.00,VWS V14.00,2013-02-04 08:57:00,
2013-02-04 04:00:00,1.3,-2.2,29.96,ESE,108,0.0,0.0,85,0.00,,---,0.00,0.00,VWS V14.00,2013-02-04 09:00:00,
2013-02-04 04:02:00,15.7,12.0,29.72,WNW,290,3.0,6.0,85,0.00,,---,0.00,0.00,VWS V14.00,2013-02-04 09:02:00,
2013-02-04 04:07:00,15.7,12.0,29.72,NW,307,3.0,6.0,85,0.00,,---,0.00,0.00,VWS V14.00,2013-02-04 09:07:00,
2013-02-04 04:12:00,15.7,12.0,29.72,NW,320,2.0,6.0,85,0.00,,---,0.00,0.00,VWS V14.00,2013-02-04 09:12:00,
2013-02-04 04:17:00,15.6,11.6,29.73,NW,305,2.0,5.0,84,0.00,,---,0.00,0.00,VWS V14.00,2013-02-04 09:17:00,
2013-02-04 04:22:00,15.5,11.5,29.73,NW,309,2.0,5.0,84,0.00,,---,0.00,0.00,VWS V14.00,2013-02-04 09:22:00,
2013-02-04 04:27:00,15.4,11.4,29.73,NNW,332,0.0,5.0,84,0.00,,---,0.00,0.00,VWS V14.00,2013-02-04 09:27:00,
2013-02-04 04:30:00,1.0,-2.4,29.96,ESE,108,0.0,0.0,85,0.00,,---,0.00,0.00,VWS V14.00,2013-02-04 09:30:00,
2013-02-04 04:32:00,15.3,11.3,29.73,WNW,287,4.0,6.0,84,0.00,,---,0.00,0.00,VWS V14.00,2013-02-04 09:32:00,
2013-02-04 04:37:00,15.3,11.3,29.73,NW,315,0.0,6.0,84,0.00,,---,0.00,0.00,VWS V14.00,2013-02-04 09:37:00,
2013-02-04 04:42:00,15.2,11.5,29.73,NNW,329,6.0,8.0,85,0.00,,---,0.00,0.00,VWS V14.00,2013-02-04 09:42:00,
2013-02-04 04:47:00,15.2,11.5,29.73,WNW,290,2.0,7.0,85,0.00,,---,0.00,0.00,VWS V14.00,2013-02-04 09:47:00,
2013-02-04 04:52:00,15.2,11.5,29.73,NW,317,2.0,7.0,85,0.00,,---,0.00,0.00,VWS V14.00,2013-02-04 09:52:00,
2013-02-04 04:57:00,15.1,11.4,29.74,WNW,296,4.0,9.0,85,0.00,,---,0.00,0.00,VWS V14.00,2013-02-04 09:57:00,
2013-02-04 05:00:00,0.3,-3.4,29.96,ESE,108,0.0,0.0,84,0.00,,---,0.00,5.00,VWS V14.00,2013-02-04 10:00:00,
2013-02-04 05:02:00,15.0,11.1,29.74,WNW,298,2.0,9.0,84,0.00,,---,0.00,0.00,VWS V14.00,2013-02-04 10:02:00,
2013-02-04 05:07:00,14.9,11.2,29.74,NNW,331,1.0,9.0,85,0.00,,---,0.00,0.00,VWS V14.00,2013-02-04 10:07:00,
2013-02-04 05:12:00,14.8,11.1,29.74,NW,317,0.0,9.0,85,0.00,,---,0.00,0.00,VWS V14.00,2013-02-04 10:12:00,
2013-02-04 05:17:00,14.7,11.0,29.73,NW,317,0.0,2.0,85,0.00,,---,0.00,0.00,VWS V14.00,2013-02-04 10:17:00,
2013-02-04 05:22:00,14.7,11.0,29.74,NW,323,2.0,2.0,85,0.00,,---,0.00,0.00,VWS V14.00,2013-02-04 10:22:00,
2013-02-04 05:27:00,14.6,10.9,29.74,NW,317,0.0,4.0,85,0.00,,---,0.00,0.00,VWS V14.00,2013-02-04 10:27:00,
2013-02-04 05:30:00,-0.2,-3.9,29.96,ESE,108,0.0,0.0,84,0.00,,---,0.00,62.00,VWS V14.00,2013-02-04 10:30:00,
2013-02-04 05:32:00,14.5,10.8,29.74,NW,306,3.0,6.0,85,0.00,,---,0.00,0.00,VWS V14.00,2013-02-04 10:32:00,
2013-02-04 05:37:00,14.4,10.7,29.74,NW,315,1.0,6.0,85,0.00,,---,0.00,0.00,VWS V14.00,2013-02-04 10:37:00,
2013-02-04 05:42:00,14.2,10.5,29.74,NW,311,5.0,6.0,85,0.00,,---,0.00,0.00,VWS V14.00,2013-02-04 10:42:00,
2013-02-04 05:47:00,14.0,10.3,29.74,NW,311,2.0,3.0,85,0.00,,---,0.00,0.00,VWS V14.00,2013-02-04 10:47:00,
2013-02-04 05:52:00,13.9,10.2,29.74,NW,311,2.0,3.0,85,0.00,,---,0.00,0.00,VWS V14.00,2013-02-04 10:52:00,
2013-02-04 05:57:00,13.7,10.0,29.74,WNW,288,0.0,3.0,85,0.00,,---,0.00,0.00,VWS V14.00,2013-02-04 10:57:00,
2013-02-04 06:00:00,1.8,-1.7,29.96,ESE,108,0.0,1.0,85,0.00,,---,0.00,25.00,VWS V14.00,2013-02-04 11:00:00,
2013-02-04 06:02:00,13.5,9.8,29.75,NW,318,3.0,4.0,85,0.00,,---,0.00,0.00,VWS V14.00,2013-02-04 11:02:00,
2013-02-04 06:07:00,13.2,9.6,29.75,NW,317,1.0,4.0,85,0.00,,---,0.00,0.00,VWS V14.00,2013-02-04 11:07:00,
2013-02-04 06:12:00,13.1,9.4,29.75,NW,317,0.0,4.0,85,0.00,,---,0.00,0.00,VWS V14.00,2013-02-04 11:12:00,
2013-02-04 06:17:00,12.9,9.2,29.76,NW,317,0.0,0.0,85,0.00,,---,0.00,0.00,VWS V14.00,2013-02-04 11:17:00,
2013-02-04 06:22:00,12.7,9.1,29.76,NW,318,0.0,1.0,85,0.00,,---,0.00,0.00,VWS V14.00,2013-02-04 11:22:00,
2013-02-04 06:27:00,12.5,8.9,29.76,NW,318,0.0,1.0,85,0.00,,---,0.00,0.00,VWS V14.00,2013-02-04 11:27:00,
2013-02-04 06:30:00,4.4,1.1,29.95,ESE,108,0.0,1.0,86,0.00,,---,0.00,30.00,VWS V14.00,2013-02-04 11:30:00,
2013-02-04 06:32:00,12.3,8.7,29.76,NW,318,0.0,1.0,85,0.00,,---,0.00,0.00,VWS V14.00,2013-02-04 11:32:00,
2013-02-04 06:37:00,12.0,8.4,29.76,NW,318,0.0,1.0,85,0.00,,---,0.00,0.00,VWS V14.00,2013-02-04 11:37:00,
2013-02-04 06:42:00,11.7,8.1,29.77,NW,318,0.0,1.0,85,0.00,,---,0.00,0.00,VWS V14.00,2013-02-04 11:42:00,
2013-02-04 06:47:00,11.5,7.9,29.76,NW,318,0.0,0.0,85,0.00,,---,0.00,0.00,VWS V14.00,2013-02-04 11:47:00,
2013-02-04 06:52:00,11.2,7.6,29.76,NW,317,0.0,0.0,85,0.00,,---,0.00,0.00,VWS V14.00,2013-02-04 11:52:00,
2013-02-04 06:57:00,10.9,7.3,29.77,NW,318,0.0,0.0,85,0.00,,---,0.00,0.00,VWS V14.00,2013-02-04 11:57:00,
2013-02-04 07:00:00,8.2,5.1,29.95,ESE,108,0.0,1.0,87,0.00,,---,0.00,42.00,VWS V14.00,2013-02-04 12:00:00,
2013-02-04 07:02:00,10.8,7.2,29.77,NW,317,0.0,0.0,85,0.00,,---,0.00,0.00,VWS V14.00,2013-02-04 12:02:00,
2013-02-04 07:07:00,10.5,6.9,29.77,NW,318,0.0,0.0,85,0.00,,---,0.00,7.00,VWS V14.00,2013-02-04 12:07:00,
2013-02-04 07:12:00,10.2,6.6,29.76,NW,318,0.0,0.0,85,0.00,,---,0.00,11.00,VWS V14.00,2013-02-04 12:12:00,
2013-02-04 07:17:00,10.0,6.4,29.76,NW,318,0.0,0.0,85,0.00,,---,0.00,16.00,VWS V14.00,2013-02-04 12:17:00,
2013-02-04 07:23:00,9.7,6.1,29.76,NW,318,0.0,0.0,85,0.00,,---,0.00,18.00,VWS V14.00,2013-02-04 12:23:00,
2013-02-04 07:28:00,9.5,5.9,29.76,NW,318,0.0,1.0,85,0.00,,---,0.00,19.00,VWS V14.00,2013-02-04 12:28:00,
2013-02-04 07:30:00,16.0,10.6,29.95,SSE,155,1.0,6.0,79,0.00,,---,0.00,42.00,VWS V14.00,2013-02-04 12:30:00,
2013-02-04 07:33:00,9.4,5.8,29.76,NW,318,0.0,1.0,85,0.00,,---,0.00,21.00,VWS V14.00,2013-02-04 12:33:00,
2013-02-04 07:38:00,9.2,5.6,29.77,NW,318,0.0,1.0,85,0.00,,---,0.00,30.00,VWS V14.00,2013-02-04 12:38:00,
2013-02-04 07:43:00,9.2,5.6,29.77,NW,318,0.0,1.0,85,0.00,,---,0.00,33.00,VWS V14.00,2013-02-04 12:43:00,
2013-02-04 07:48:00,9.2,5.9,29.77,NW,318,0.0,0.0,86,0.00,,---,0.00,33.00,VWS V14.00,2013-02-04 12:48:00,
2013-02-04 07:53:00,9.4,6.1,29.77,NW,318,0.0,0.0,86,0.00,,---,0.00,56.00,VWS V14.00,2013-02-04 12:53:00,
2013-02-04 07:58:00,9.5,6.2,29.77,NW,318,0.0,0.0,86,0.00,,---,0.00,58.00,VWS V14.00,2013-02-04 12:58:00,
2013-02-04 08:00:00,17.1,10.3,29.94,SSE,165,2.0,11.0,74,0.00,,---,0.00,54.00,VWS V14.00,2013-02-04 13:00:00,
2013-02-04 08:03:00,9.8,6.5,29.77,NW,318,0.0,0.0,86,0.00,,---,0.00,39.00,VWS V14.00,2013-02-04 13:03:00,
2013-02-04 08:08:00,10.0,6.7,29.77,NW,318,0.0,1.0,86,0.00,,---,0.00,42.00,VWS V14.00,2013-02-04 13:08:00,
2013-02-04 08:13:00,10.1,6.8,29.77,NW,318,0.0,1.0,86,0.00,,---,0.00,44.00,VWS V14.00,2013-02-04 13:13:00,
2013-02-04 08:18:00,10.2,6.8,29.77,NW,318,0.0,0.0,86,0.00,,---,0.00,42.00,VWS V14.00,2013-02-04 13:18:00,
2013-02-04 08:23:00,10.3,6.9,29.78,NW,318,0.0,0.0,86,0.00,,---,0.00,40.00,VWS V14.00,2013-02-04 13:23:00,
2013-02-04 08:28:00,10.3,6.9,29.78,NW,318,0.0,0.0,86,0.00,,---,0.00,53.00,VWS V14.00,2013-02-04 13:28:00,
2013-02-04 08:30:00,18.4,10.3,29.93,SSE,163,8.0,8.0,70,0.00,,---,0.00,63.00,VWS V14.00,2013-02-04 13:30:00,
2013-02-04 08:33:00,10.5,7.2,29.77,NW,318,0.0,1.0,86,0.00,,---,0.00,62.00,VWS V14.00,2013-02-04 13:33:00,
2013-02-04 08:38:00,11.0,7.6,29.78,NW,318,0.0,1.0,86,0.00,,---,0.00,83.00,VWS V14.00,2013-02-04 13:38:00,
2013-02-04 08:43:00,11.6,8.5,29.78,NW,318,0.0,1.0,87,0.00,,---,0.00,70.00,VWS V14.00,2013-02-04 13:43:00,
2013-02-04 08:48:00,12.2,9.1,29.78,WSW,244,0.0,1.0,87,0.00,,---,0.00,113.00,VWS V14.00,2013-02-04 13:48:00,
2013-02-04 08:53:00,12.7,9.6,29.78,SW,233,0.0,5.0,87,0.00,,---,0.00,81.00,VWS V14.00,2013-02-04 13:53:00,
2013-02-04 08:58:00,13.4,10.0,29.77,WSW,246,2.0,6.0,86,0.00,,---,0.00,91.00,VWS V14.00,2013-02-04 13:58:00,
2013-02-04 09:00:00,19.7,10.2,29.92,South,170,3.0,8.0,66,0.00,,---,0.00,113.00,VWS V14.00,2013-02-04 14:00:00,
2013-02-04 09:03:00,13.6,9.9,29.77,West,281,0.0,7.0,85,0.00,,---,0.00,123.00,VWS V14.00,2013-02-04 14:03:00,
2013-02-04 09:08:00,14.1,10.2,29.77,WSW,244,0.0,7.0,84,0.00,,---,0.00,104.00,VWS V14.00,2013-02-04 14:08:00,
2013-02-04 09:13:00,14.5,10.3,29.77,West,261,0.0,7.0,83,0.00,,---,0.00,102.00,VWS V14.00,2013-02-04 14:13:00,
2013-02-04 09:18:00,14.8,10.6,29.76,NW,309,0.0,6.0,83,0.00,,---,0.00,105.00,VWS V14.00,2013-02-04 14:18:00,
2013-02-04 09:23:00,15.0,10.5,29.76,WNW,296,1.0,6.0,82,0.00,,---,0.00,116.00,VWS V14.00,2013-02-04 14:23:00,
2013-02-04 09:28:00,15.0,10.2,29.76,WSW,251,3.0,8.0,81,0.00,,---,0.00,125.00,VWS V14.00,2013-02-04 14:28:00,
2013-02-04 09:30:00,19.9,10.4,29.90,SSE,163,2.0,9.0,66,0.00,,---,0.00,485.00,VWS V14.00,2013-02-04 14:30:00,
2013-02-04 09:33:00,15.2,10.4,29.76,WSW,257,0.0,8.0,81,0.00,,---,0.00,155.00,VWS V14.00,2013-02-04 14:33:00,
2013-02-04 09:38:00,15.6,10.5,29.76,West,261,0.0,8.0,80,0.00,,---,0.00,148.00,VWS V14.00,2013-02-04 14:38:00,
2013-02-04 09:43:00,15.9,10.6,29.75,WSW,249,1.0,8.0,79,0.00,,---,0.00,158.00,VWS V14.00,2013-02-04 14:43:00,
2013-02-04 09:48:00,16.1,10.8,29.75,SW,223,0.0,6.0,79,0.00,,---,0.00,149.00,VWS V14.00,2013-02-04 14:48:00,
2013-02-04 09:53:00,16.2,10.8,29.75,WNW,286,1.0,6.0,79,0.00,,---,0.00,148.00,VWS V14.00,2013-02-04 14:53:00,
2013-02-04 09:58:00,16.4,11.0,29.75,NW,324,2.0,6.0,79,0.00,,---,0.00,160.00,VWS V14.00,2013-02-04 14:58:00,
2013-02-04 10:00:00,20.3,10.8,29.88,SSE,168,2.0,9.0,66,0.00,,---,0.00,501.00,VWS V14.00,2013-02-04 15:00:00,
2013-02-04 10:03:00,16.4,11.0,29.75,NW,315,1.0,6.0,79,0.00,,---,0.00,185.00,VWS V14.00,2013-02-04 15:03:00,
2013-02-04 10:08:00,16.6,11.2,29.75,SSE,147,1.0,6.0,79,0.00,,---,0.00,174.00,VWS V14.00,2013-02-04 15:08:00,
2013-02-04 10:13:00,16.8,11.4,29.75,WSW,246,1.0,6.0,79,0.00,,---,0.00,186.00,VWS V14.00,2013-02-04 15:13:00,
2013-02-04 10:18:00,16.9,11.2,29.75,WSW,239,1.0,5.0,78,0.00,,---,0.00,186.00,VWS V14.00,2013-02-04 15:18:00,
2013-02-04 10:23:00,17.1,11.1,29.75,NW,308,3.0,5.0,77,0.00,,---,0.00,283.00,VWS V14.00,2013-02-04 15:23:00,
2013-02-04 10:28:00,17.6,11.3,29.75,NNW,347,3.0,6.0,76,0.00,,---,0.00,221.00,VWS V14.00,2013-02-04 15:28:00,
2013-02-04 10:30:00,21.5,9.8,29.86,East,94,1.0,11.0,60,0.00,,---,0.00,496.00,VWS V14.00,2013-02-04 15:30:00,
2013-02-04 10:33:00,17.8,10.9,29.75,WNW,302,2.0,7.0,74,0.00,,---,0.00,200.00,VWS V14.00,2013-02-04 15:33:00,
2013-02-04 10:38:00,17.9,10.4,29.75,SW,219,6.0,11.0,72,0.00,,---,0.00,120.00,VWS V14.00,2013-02-04 15:38:00,
2013-02-04 10:43:00,17.7,9.3,29.75,SSW,200,1.0,11.0,69,0.00,,---,0.00,190.00,VWS V14.00,2013-02-04 15:43:00,
2013-02-04 10:48:00,17.9,8.8,29.75,WNW,290,1.0,10.0,67,0.00,,---,0.00,176.00,VWS V14.00,2013-02-04 15:48:00,
2013-02-04 10:53:00,18.1,8.0,29.75,WNW,300,7.0,13.0,64,0.00,,---,0.00,172.00,VWS V14.00,2013-02-04 15:53:00,
2013-02-04 10:58:00,18.4,7.6,29.74,WNW,290,3.0,13.0,62,0.00,,---,0.00,132.00,VWS V14.00,2013-02-04 15:58:00,
2013-02-04 11:00:00,22.0,9.9,29.84,East,92,2.0,11.0,59,0.00,,---,0.00,471.00,VWS V14.00,2013-02-04 16:00:00,
2013-02-04 11:03:00,18.4,6.1,29.74,West,271,4.0,13.0,58,0.00,,---,0.00,141.00,VWS V14.00,2013-02-04 16:03:00,
2013-02-04 11:08:00,18.5,5.4,29.74,WSW,237,1.0,13.0,56,0.00,,---,0.00,162.00,VWS V14.00,2013-02-04 16:08:00,
2013-02-04 11:13:00,18.7,4.8,29.74,WNW,284,2.0,13.0,54,0.00,,---,0.00,171.00,VWS V14.00,2013-02-04 16:13:00,
2013-02-04 11:18:00,18.7,4.0,29.74,NW,308,5.0,9.0,52,0.00,,---,0.00,220.00,VWS V14.00,2013-02-04 16:18:00,
2013-02-04 11:23:00,18.9,3.8,29.73,West,281,0.0,11.0,51,0.00,,---,0.00,246.00,VWS V14.00,2013-02-04 16:23:00,
2013-02-04 11:28:00,19.5,3.9,29.73,SSW,200,5.0,11.0,50,0.00,,---,0.00,548.00,VWS V14.00,2013-02-04 16:28:00,
2013-02-04 11:30:00,22.6,9.3,29.82,East,88,0.0,8.0,56,0.00,,---,0.00,132.00,VWS V14.00,2013-02-04 16:30:00,
2013-02-04 11:33:00,19.6,3.5,29.73,NW,313,9.0,11.0,49,0.00,,---,0.00,652.00,VWS V14.00,2013-02-04 16:33:00,
2013-02-04 11:38:00,20.4,4.3,29.73,WNW,300,5.0,11.0,49,0.00,,---,0.00,666.00,VWS V14.00,2013-02-04 16:38:00,
2013-02-04 11:43:00,20.7,3.2,29.72,West,261,0.0,12.0,46,0.00,,---,0.00,671.00,VWS V14.00,2013-02-04 16:43:00,
2013-02-04 11:48:00,21.4,3.8,29.73,West,273,3.0,7.0,46,0.00,,---,0.00,642.00,VWS V14.00,2013-02-04 16:48:00,
2013-02-04 11:53:00,20.9,2.9,29.73,NW,306,3.0,7.0,45,0.00,,---,0.00,582.00,VWS V14.00,2013-02-04 16:53:00,
2013-02-04 11:58:00,20.8,1.8,29.72,NW,309,2.0,7.0,43,0.00,,---,0.00,640.00,VWS V14.00,2013-02-04 16:58:00,
2013-02-04 12:00:00,22.5,12.2,29.81,NW,315,3.0,7.0,64,0.00,,---,0.00,186.00,VWS V14.00,2013-02-04 17:00:00,
2013-02-04 12:03:00,21.3,2.8,29.72,SW,234,6.0,12.0,44,0.00,,---,0.00,647.00,VWS V14.00,2013-02-04 17:03:00,
2013-02-04 12:08:00,21.6,4.5,29.73,NW,305,7.0,12.0,47,0.00,,---,0.00,606.00,VWS V14.00,2013-02-04 17:08:00,
2013-02-04 12:13:00,21.2,3.2,29.72,NW,306,8.0,15.0,45,0.00,,---,0.00,585.00,VWS V14.00,2013-02-04 17:13:00,
2013-02-04 12:18:00,20.7,3.2,29.73,SSW,196,0.0,16.0,46,0.00,,---,0.00,113.00,VWS V14.00,2013-02-04 17:18:00,
2013-02-04 12:23:00,20.2,3.2,29.72,NW,305,10.0,16.0,47,0.00,,---,0.00,165.00,VWS V14.00,2013-02-04 17:23:00,
2013-02-04 12:28:00,20.4,4.3,29.72,WNW,288,9.0,16.0,49,0.00,,---,0.00,626.00,VWS V14.00,2013-02-04 17:28:00,
2013-02-04 12:30:00,22.5,11.8,29.81,NW,308,0.0,8.0,63,0.00,,---,0.00,181.00,VWS V14.00,2013-02-04 17:30:00,
2013-02-04 12:33:00,20.8,4.2,29.72,WSW,251,2.0,16.0,48,0.00,,---,0.00,647.00,VWS V14.00,2013-02-04 17:33:00,
2013-02-04 12:38:00,21.3,3.8,29.72,WNW,303,3.0,16.0,46,0.00,,---,0.00,633.00,VWS V14.00,2013-02-04 17:38:00,
2013-02-04 12:43:00,21.3,3.8,29.72,WNW,297,12.0,16.0,46,0.00,,---,0.00,608.00,VWS V14.00,2013-02-04 17:43:00,
2013-02-04 12:48:00,21.6,-0.1,29.72,NW,316,2.0,13.0,38,0.00,,---,0.00,631.00,VWS V14.00,2013-02-04 17:48:00,
2013-02-04 12:53:00,22.0,1.4,29.72,WSW,254,1.0,13.0,40,0.00,,---,0.00,592.00,VWS V14.00,2013-02-04 17:53:00,
2013-02-04 12:58:00,22.0,0.3,29.72,South,186,4.0,14.0,38,0.00,,---,0.00,656.00,VWS V14.00,2013-02-04 17:58:00,
2013-02-04 13:00:00,23.1,12.0,29.81,NW,310,2.0,4.0,62,0.00,,---,0.00,144.00,VWS V14.00,2013-02-04 18:00:00,
2013-02-04 13:03:00,22.1,-0.8,29.72,WNW,303,4.0,15.0,36,0.00,,---,0.00,589.00,VWS V14.00,2013-02-04 18:03:00,
2013-02-04 13:08:00,21.8,-2.2,29.72,West,275,2.0,15.0,34,0.00,,---,0.00,550.00,VWS V14.00,2013-02-04 18:08:00,
2013-02-04 13:13:00,21.7,-2.3,29.72,WSW,246,2.0,16.0,34,0.00,,---,0.00,548.00,VWS V14.00,2013-02-04 18:13:00,
2013-02-04 13:18:00,21.3,-2.7,29.72,NW,319,5.0,12.0,34,0.00,,---,0.00,540.00,VWS V14.00,2013-02-04 18:18:00,
2013-02-04 13:23:00,21.5,-2.5,29.72,West,261,6.0,12.0,34,0.00,,---,0.00,480.00,VWS V14.00,2013-02-04 18:23:00,
2013-02-04 13:28:00,21.7,-2.3,29.72,WNW,302,2.0,12.0,34,0.00,,---,0.00,69.00,VWS V14.00,2013-02-04 18:28:00,
2013-02-04 13:30:00,22.7,11.6,29.80,WSW,242,0.0,3.0,62,0.00,,---,0.00,77.00,VWS V14.00,2013-02-04 18:30:00,
2013-02-04 13:33:00,22.0,-2.1,29.73,WSW,254,4.0,12.0,34,0.00,,---,0.00,323.00,VWS V14.00,2013-02-04 18:33:00,
2013-02-04 13:38:00,21.7,-1.7,29.73,NW,306,5.0,12.0,35,0.00,,---,0.00,497.00,VWS V14.00,2013-02-04 18:38:00,
2013-02-04 13:43:00,21.5,-2.5,29.73,WSW,242,2.0,12.0,34,0.00,,---,0.00,490.00,VWS V14.00,2013-02-04 18:43:00,
2013-02-04 13:48:00,21.0,-2.3,29.73,WSW,257,6.0,9.0,35,0.00,,---,0.00,98.00,VWS V14.00,2013-02-04 18:48:00,
2013-02-04 13:53:00,20.6,-1.5,29.73,SW,228,4.0,9.0,37,0.00,,---,0.00,452.00,VWS V14.00,2013-02-04 18:53:00,
2013-02-04 13:58:00,20.5,-1.6,29.73,West,279,2.0,10.0,37,0.00,,---,0.00,174.00,VWS V14.00,2013-02-04 18:58:00,
2013-02-04 14:00:00,22.0,11.7,29.79,WNW,303,2.0,5.0,64,0.00,,---,0.00,44.00,VWS V14.00,2013-02-04 19:00:00,
2013-02-04 14:03:00,20.4,-1.1,29.73,NW,317,5.0,10.0,38,0.00,,---,0.00,538.00,VWS V14.00,2013-02-04 19:03:00,
2013-02-04 14:09:00,21.2,-0.4,29.73,WNW,302,13.0,16.0,38,0.00,,---,0.00,490.00,VWS V14.00,2013-02-04 19:09:00,
2013-02-04 14:14:00,21.3,0.2,29.73,SW,226,7.0,16.0,39,0.00,,---,0.00,475.00,VWS V14.00,2013-02-04 19:14:00,
2013-02-04 14:19:00,21.3,0.2,29.73,WSW,246,6.0,12.0,39,0.00,,---,0.00,475.00,VWS V14.00,2013-02-04 19:19:00,
2013-02-04 14:24:00,21.4,-0.2,29.73,West,271,4.0,12.0,38,0.00,,---,0.00,457.00,VWS V14.00,2013-02-04 19:24:00,
2013-02-04 14:29:00,21.0,-1.2,29.73,WSW,241,3.0,12.0,37,0.00,,---,0.00,485.00,VWS V14.00,2013-02-04 19:29:00,
2013-02-04 14:30:00,21.7,12.1,29.79,NW,310,0.0,5.0,66,0.00,,---,0.00,28.00,VWS V14.00,2013-02-04 19:30:00,
2013-02-04 14:34:00,21.1,-1.1,29.73,SSE,153,4.0,13.0,37,0.00,,---,0.00,441.00,VWS V14.00,2013-02-04 19:34:00,
2013-02-04 14:39:00,21.1,-1.7,29.74,WNW,294,2.0,13.0,36,0.00,,---,0.00,413.00,VWS V14.00,2013-02-04 19:39:00,
2013-02-04 14:44:00,21.1,-0.5,29.74,WSW,253,3.0,13.0,38,0.00,,---,0.00,388.00,VWS V14.00,2013-02-04 19:44:00,
2013-02-04 14:49:00,21.0,-1.2,29.74,West,270,7.0,9.0,37,0.00,,---,0.00,401.00,VWS V14.00,2013-02-04 19:49:00,
2013-02-04 14:54:00,20.9,-0.7,29.74,West,280,8.0,9.0,38,0.00,,---,0.00,378.00,VWS V14.00,2013-02-04 19:54:00,
2013-02-04 14:59:00,20.9,-0.7,29.74,SSW,204,4.0,9.0,38,0.00,,---,0.00,350.00,VWS V14.00,2013-02-04 19:59:00,
2013-02-04 15:00:00,20.7,10.8,29.78,NW,312,1.0,5.0,65,0.00,,---,0.00,0.00,VWS V14.00,2013-02-04 20:00:00,
2013-02-04 15:04:00,20.9,-0.7,29.75,West,261,2.0,11.0,38,0.00,,---,0.00,343.00,VWS V14.00,2013-02-04 20:04:00,
2013-02-04 15:09:00,20.7,-0.9,29.75,WNW,295,2.0,12.0,38,0.00,,---,0.00,297.00,VWS V14.00,2013-02-04 20:09:00,
2013-02-04 15:14:00,20.5,-1.1,29.75,West,274,4.0,12.0,38,0.00,,---,0.00,315.00,VWS V14.00,2013-02-04 20:14:00,
2013-02-04 15:19:00,20.4,-1.1,29.75,WSW,256,9.0,9.0,38,0.00,,---,0.00,234.00,VWS V14.00,2013-02-04 20:19:00,
2013-02-04 15:24:00,20.2,-1.3,29.75,West,263,4.0,21.0,38,0.00,,---,0.00,72.00,VWS V14.00,2013-02-04 20:24:00,
2013-02-04 15:29:00,20.2,-0.8,29.75,SW,227,10.0,21.0,39,0.00,,---,0.00,102.00,VWS V14.00,2013-02-04 20:29:00,
2013-02-04 15:30:00,19.7,10.5,29.78,NW,312,0.0,1.0,67,0.00,,---,0.00,0.00,VWS V14.00,2013-02-04 20:30:00,
2013-02-04 15:34:00,20.0,-1.0,29.75,WSW,252,0.0,21.0,39,0.00,,---,0.00,171.00,VWS V14.00,2013-02-04 20:34:00,
2013-02-04 15:39:00,20.0,-1.0,29.76,WSW,240,3.0,21.0,39,0.00,,---,0.00,193.00,VWS V14.00,2013-02-04 20:39:00,
2013-02-04 15:44:00,20.0,-0.4,29.75,SW,234,7.0,21.0,40,0.00,,---,0.00,232.00,VWS V14.00,2013-02-04 20:44:00,
2013-02-04 15:49:00,19.8,-0.6,29.76,WSW,246,5.0,8.0,40,0.00,,---,0.00,137.00,VWS V14.00,2013-02-04 20:49:00,
2013-02-04 15:54:00,19.6,-0.3,29.76,WSW,244,8.0,10.0,41,0.00,,---,0.00,178.00,VWS V14.00,2013-02-04 20:54:00,
2013-02-04 15:59:00,19.2,-0.6,29.76,SSW,212,1.0,10.0,41,0.00,,---,0.00,162.00,VWS V14.00,2013-02-04 20:59:00,
2013-02-04 16:00:00,17.3,10.4,29.78,NW,312,0.0,0.0,74,0.00,,---,0.00,0.00,VWS V14.00,2013-02-04 21:00:00,
2013-02-04 16:04:00,19.1,-0.2,29.76,West,277,8.0,10.0,42,0.00,,---,0.00,153.00,VWS V14.00,2013-02-04 21:04:00,
2013-02-04 16:09:00,18.8,0.0,29.76,WSW,246,3.0,10.0,43,0.00,,---,0.00,148.00,VWS V14.00,2013-02-04 21:09:00,
2013-02-04 16:14:00,18.6,-0.7,29.77,SW,231,2.0,10.0,42,0.00,,---,0.00,107.00,VWS V14.00,2013-02-04 21:14:00,
2013-02-04 16:19:00,18.6,-0.7,29.77,NW,319,4.0,15.0,42,0.00,,---,0.00,91.00,VWS V14.00,2013-02-04 21:19:00,
2013-02-04 16:24:00,18.5,-0.8,29.77,West,272,0.0,15.0,42,0.00,,---,0.00,49.00,VWS V14.00,2013-02-04 21:24:00,
2013-02-04 16:29:00,18.4,-0.3,29.78,WSW,252,4.0,15.0,43,0.00,,---,0.00,39.00,VWS V14.00,2013-02-04 21:29:00,
2013-02-04 16:30:00,17.2,11.5,29.78,NW,312,0.0,1.0,78,0.00,,---,0.00,0.00,VWS V14.00,2013-02-04 21:30:00,
2013-02-04 16:34:00,18.2,-0.5,29.78,SSW,198,12.0,15.0,43,0.00,,---,0.00,30.00,VWS V14.00,2013-02-04 21:34:00,
2013-02-04 16:39:00,17.7,-0.5,29.78,West,261,1.0,15.0,44,0.00,,---,0.00,19.00,VWS V14.00,2013-02-04 21:39:00,
2013-02-04 16:44:00,17.4,-0.8,29.78,WNW,284,3.0,15.0,44,0.00,,---,0.00,14.00,VWS V14.00,2013-02-04 21:44:00,
2013-02-04 16:49:00,17.0,-1.1,29.78,SSW,199,3.0,9.0,44,0.00,,---,0.00,14.00,VWS V14.00,2013-02-04 21:49:00,
2013-02-04 16:55:00,16.7,-1.4,29.78,WSW,248,5.0,15.0,44,0.00,,---,0.00,11.00,VWS V14.00,2013-02-04 21:55:00,
2013-02-04 17:00:00,16.4,-1.2,29.79,South,189,8.0,15.0,45,0.00,,---,0.00,7.00,VWS V14.00,2013-02-04 22:00:00,
2013-02-04 17:05:00,16.3,-1.3,29.78,WNW,289,3.0,15.0,45,0.00,,---,0.00,5.00,VWS V14.00,2013-02-04 22:05:00,
2013-02-04 17:10:00,16.1,-1.5,29.78,SW,228,5.0,15.0,45,0.00,,---,0.00,0.00,VWS V14.00,2013-02-04 22:10:00,
2013-02-04 17:15:00,16.0,-1.1,29.79,West,277,3.0,15.0,46,0.00,,---,0.00,0.00,VWS V14.00,2013-02-04 22:15:00,
2013-02-04 17:20:00,15.8,-1.3,29.79,WSW,257,2.0,17.0,46,0.00,,---,0.00,0.00,VWS V14.00,2013-02-04 22:20:00,
2013-02-04 17:25:00,15.7,-1.4,29.79,WSW,251,1.0,17.0,46,0.00,,---,0.00,0.00,VWS V14.00,2013-02-04 22:25:00,
2013-02-04 17:30:00,15.5,-1.6,29.79,SW,220,7.0,17.0,46,0.00,,---,0.00,0.00,VWS V14.00,2013-02-04 22:30:00,
2013-02-04 17:35:00,15.4,-1.2,29.80,SW,235,5.0,17.0,47,0.00,,---,0.00,0.00,VWS V14.00,2013-02-04 22:35:00,
2013-02-04 17:40:00,15.3,-1.3,29.80,SW,227,7.0,17.0,47,0.00,,---,0.00,0.00,VWS V14.00,2013-02-04 22:40:00,
2013-02-04 17:45:00,15.3,-1.3,29.80,NW,323,4.0,17.0,47,0.00,,---,0.00,0.00,VWS V14.00,2013-02-04 22:45:00,
2013-02-04 17:50:00,15.2,-1.4,29.81,West,269,4.0,6.0,47,0.00,,---,0.00,0.00,VWS V14.00,2013-02-04 22:50:00,
2013-02-04 17:55:00,15.2,-1.9,29.81,NW,306,2.0,11.0,46,0.00,,---,0.00,0.00,VWS V14.00,2013-02-04 22:55:00,
2013-02-04 18:00:00,15.1,-1.5,29.81,WSW,254,3.0,11.0,47,0.00,,---,0.00,0.00,VWS V14.00,2013-02-04 23:00:00,
2013-02-04 18:05:00,15.0,-1.6,29.81,SSW,200,5.0,11.0,47,0.00,,---,0.00,0.00,VWS V14.00,2013-02-04 23:05:00,
2013-02-04 18:10:00,14.9,-1.7,29.81,SW,217,2.0,12.0,47,0.00,,---,0.00,0.00,VWS V14.00,2013-02-04 23:10:00,
2013-02-04 18:15:00,14.9,-1.2,29.82,SW,231,0.0,12.0,48,0.00,,---,0.00,0.00,VWS V14.00,2013-02-04 23:15:00,
2013-02-04 18:20:00,14.8,-1.3,29.82,West,276,0.0,7.0,48,0.00,,---,0.00,0.00,VWS V14.00,2013-02-04 23:20:00,
2013-02-04 18:25:00,14.6,-1.5,29.82,WSW,247,2.0,12.0,48,0.00,,---,0.00,0.00,VWS V14.00,2013-02-04 23:25:00,
2013-02-04 18:30:00,14.6,-1.1,29.82,WSW,250,5.0,12.0,49,0.00,,---,0.00,0.00,VWS V14.00,2013-02-04 23:30:00,
2013-02-04 18:35:00,14.5,-0.7,29.83,WSW,255,6.0,12.0,50,0.00,,---,0.00,0.00,VWS V14.00,2013-02-04 23:35:00,
2013-02-04 18:40:00,14.4,-1.3,29.83,West,261,2.0,12.0,49,0.00,,---,0.00,0.00,VWS V14.00,2013-02-04 23:40:00,
2013-02-04 18:45:00,14.3,-0.9,29.83,West,261,0.0,12.0,50,0.00,,---,0.00,0.00,VWS V14.00,2013-02-04 23:45:00,
2013-02-04 18:50:00,14.3,-0.9,29.83,SW,230,0.0,7.0,50,0.00,,---,0.00,0.00,VWS V14.00,2013-02-04 23:50:00,
2013-02-04 18:55:00,14.1,-1.1,29.83,WSW,245,0.0,7.0,50,0.00,,---,0.00,0.00,VWS V14.00,2013-02-04 23:55:00,
2013-02-04 19:00:00,14.0,-1.2,29.83,WSW,250,0.0,7.0,50,0.00,,---,0.00,0.00,VWS V14.00,2013-02-05 00:00:00,
2013-02-04 19:05:00,14.0,-0.8,29.83,South,190,0.0,7.0,51,0.00,,---,0.00,0.00,VWS V14.00,2013-02-05 00:05:00,
2013-02-04 19:10:00,13.8,-1.0,29.83,WSW,245,2.0,9.0,51,0.00,,---,0.00,0.00,VWS V14.00,2013-02-05 00:10:00,
2013-02-04 19:15:00,13.7,-1.1,29.83,SW,217,4.0,9.0,51,0.00,,---,0.00,0.00,VWS V14.00,2013-02-05 00:15:00,
2013-02-04 19:20:00,13.6,-1.2,29.83,WSW,250,3.0,4.0,51,0.00,,---,0.00,0.00,VWS V14.00,2013-02-05 00:20:00,
2013-02-04 19:25:00,13.5,-0.8,29.83,WSW,242,2.0,4.0,52,0.00,,---,0.00,0.00,VWS V14.00,2013-02-05 00:25:00,
2013-02-04 19:30:00,13.5,-0.8,29.84,WSW,254,1.0,7.0,52,0.00,,---,0.00,0.00,VWS V14.00,2013-02-05 00:30:00,
2013-02-04 19:36:00,13.4,-0.9,29.84,WSW,254,0.0,7.0,52,0.00,,---,0.00,0.00,VWS V14.00,2013-02-05 00:36:00,
2013-02-04 19:41:00,13.3,-1.0,29.84,West,259,1.0,7.0,52,0.00,,---,0.00,0.00,VWS V14.00,2013-02-05 00:41:00,
2013-02-04 19:46:00,13.2,-1.1,29.84,WSW,237,1.0,1.0,52,0.00,,---,0.00,0.00,VWS V14.00,2013-02-05 00:46:00,
2013-02-04 19:51:00,13.1,-1.2,29.84,WSW,252,1.0,6.0,52,0.00,,---,0.00,0.00,VWS V14.00,2013-02-05 00:51:00,
2013-02-04 19:56:00,13.0,-1.3,29.84,West,272,2.0,7.0,52,0.00,,---,0.00,0.00,VWS V14.00,2013-02-05 00:56:00,
2013-02-04 20:00:00,15.8,11.8,29.75,NW,312,0.0,0.0,84,0.00,,---,0.00,0.00,VWS V14.00,2013-02-05 01:00:00,
2013-02-04 20:01:00,13.0,-0.9,29.84,WSW,253,2.0,7.0,53,0.00,,---,0.00,0.00,VWS V14.00,2013-02-05 01:01:00,
2013-02-04 20:06:00,12.9,-1.0,29.84,WSW,250,0.0,7.0,53,0.00,,---,0.00,0.00,VWS V14.00,2013-02-05 01:06:00,
2013-02-04 20:11:00,12.8,-1.1,29.85,WSW,254,1.0,7.0,53,0.00,,---,0.00,0.00,VWS V14.00,2013-02-05 01:11:00,
2013-02-04 20:16:00,12.7,-1.2,29.85,WNW,288,0.0,1.0,53,0.00,,---,0.00,0.00,VWS V14.00,2013-02-05 01:16:00,
2013-02-04 20:21:00,12.6,-0.9,29.85,WNW,295,1.0,3.0,54,0.00,,---,0.00,0.00,VWS V14.00,2013-02-05 01:21:00,
2013-02-04 20:26:00,12.4,-1.1,29.85,NW,320,3.0,6.0,54,0.00,,---,0.00,0.00,VWS V14.00,2013-02-05 01:26:00,
2013-02-04 20:30:00,15.5,11.5,29.75,NW,312,0.0,0.0,84,0.00,,---,0.00,0.00,VWS V14.00,2013-02-05 01:30:00,
2013-02-04 20:31:00,12.2,-1.3,29.85,NW,320,1.0,6.0,54,0.00,,---,0.00,0.00,VWS V14.00,2013-02-05 01:31:00,
2013-02-04 20:36:00,12.0,-1.1,29.85,NW,319,2.0,6.0,55,0.00,,---,0.00,0.00,VWS V14.00,2013-02-05 01:36:00,
2013-02-04 20:41:00,11.7,-1.3,29.85,NW,319,3.0,6.0,55,0.00,,---,0.00,0.00,VWS V14.00,2013-02-05 01:41:00,
2013-02-04 20:46:00,11.5,-1.1,29.85,NW,319,1.0,1.0,56,0.00,,---,0.00,0.00,VWS V14.00,2013-02-05 01:46:00,
2013-02-04 20:51:00,11.2,-1.0,29.85,NW,310,1.0,4.0,57,0.00,,---,0.00,0.00,VWS V14.00,2013-02-05 01:51:00,
2013-02-04 20:56:00,11.0,-1.2,29.86,NW,310,0.0,4.0,57,0.00,,---,0.00,0.00,VWS V14.00,2013-02-05 01:56:00,
2013-02-04 21:00:00,15.3,11.6,29.74,NW,312,0.0,0.0,85,0.00,,---,0.00,0.00,VWS V14.00,2013-02-05 02:00:00,
2013-02-04 21:01:00,10.9,-1.0,29.85,NW,310,0.0,4.0,58,0.00,,---,0.00,0.00,VWS V14.00,2013-02-05 02:01:00,
2013-02-04 21:06:00,10.7,-0.8,29.86,NW,310,0.0,4.0,59,0.00,,---,0.00,0.00,VWS V14.00,2013-02-05 02:06:00,
2013-02-04 21:11:00,10.5,-1.0,29.86,NW,310,1.0,4.0,59,0.00,,---,0.00,0.00,VWS V14.00,2013-02-05 02:11:00,
2013-02-04 21:17:00,10.3,-0.8,29.86,NW,310,1.0,1.0,60,0.00,,---,0.00,0.00,VWS V14.00,2013-02-05 02:17:00,
2013-02-04 21:22:00,10.2,-0.9,29.86,NW,310,0.0,1.0,60,0.00,,---,0.00,0.00,VWS V14.00,2013-02-05 02:22:00,
2013-02-04 21:27:00,10.0,-0.8,29.86,NW,310,0.0,1.0,61,0.00,,---,0.00,0.00,VWS V14.00,2013-02-05 02:27:00,
2013-02-04 21:30:00,15.2,11.5,29.74,NW,312,0.0,0.0,85,0.00,,---,0.00,0.00,VWS V14.00,2013-02-05 02:30:00,
2013-02-04 21:32:00,9.8,-0.9,29.86,NW,310,1.0,3.0,61,0.00,,---,0.00,0.00,VWS V14.00,2013-02-05 02:32:00,
2013-02-04 21:37:00,9.5,-1.2,29.86,NW,310,1.0,3.0,61,0.00,,---,0.00,0.00,VWS V14.00,2013-02-05 02:37:00,
2013-02-04 21:42:00,9.4,-1.0,29.86,NW,310,0.0,3.0,62,0.00,,---,0.00,0.00,VWS V14.00,2013-02-05 02:42:00,
2013-02-04 21:47:00,9.1,-0.9,29.86,NW,310,0.0,0.0,63,0.00,,---,0.00,0.00,VWS V14.00,2013-02-05 02:47:00,
2013-02-04 21:52:00,8.9,-1.1,29.86,NW,310,0.0,0.0,63,0.00,,---,0.00,0.00,VWS V14.00,2013-02-05 02:52:00,
2013-02-04 21:57:00,8.7,-1.0,29.86,NW,310,0.0,2.0,64,0.00,,---,0.00,0.00,VWS V14.00,2013-02-05 02:57:00,
2013-02-04 22:00:00,15.2,11.8,29.73,NW,312,0.0,0.0,86,0.00,,---,0.00,0.00,VWS V14.00,2013-02-05 03:00:00,
2013-02-04 22:02:00,8.6,-0.7,29.86,NW,310,0.0,2.0,65,0.00,,---,0.00,0.00,VWS V14.00,2013-02-05 03:02:00,
2013-02-04 22:07:00,8.4,-0.9,29.86,NW,310,0.0,2.0,65,0.00,,---,0.00,0.00,VWS V14.00,2013-02-05 03:07:00,
2013-02-04 22:12:00,8.3,-0.7,29.86,NW,310,0.0,2.0,66,0.00,,---,0.00,0.00,VWS V14.00,2013-02-05 03:12:00,
2013-02-04 22:17:00,8.2,-0.5,29.86,NW,313,0.0,2.0,67,0.00,,---,0.00,0.00,VWS V14.00,2013-02-05 03:17:00,
2013-02-04 22:22:00,8.1,-0.6,29.87,NW,313,0.0,2.0,67,0.00,,---,0.00,0.00,VWS V14.00,2013-02-05 03:22:00,
2013-02-04 22:27:00,8.0,-0.4,29.87,NW,313,0.0,2.0,68,0.00,,---,0.00,0.00,VWS V14.00,2013-02-05 03:27:00,
2013-02-04 22:30:00,15.2,11.8,29.73,NW,312,0.0,0.0,86,0.00,,---,0.00,0.00,VWS V14.00,2013-02-05 03:30:00,
2013-02-04 22:32:00,7.8,-0.6,29.87,NE,46,3.0,4.0,68,0.00,,---,0.00,0.00,VWS V14.00,2013-02-05 03:32:00,
2013-02-04 22:37:00,7.6,-0.7,29.87,NE,46,0.0,4.0,68,0.00,,---,0.00,0.00,VWS V14.00,2013-02-05 03:37:00,
2013-02-04 22:42:00,7.4,-0.6,29.87,NE,46,0.0,4.0,69,0.00,,---,0.00,0.00,VWS V14.00,2013-02-05 03:42:00,
2013-02-04 22:47:00,7.0,-1.0,29.87,ENE,76,0.0,0.0,69,0.00,,---,0.00,0.00,VWS V14.00,2013-02-05 03:47:00,
2013-02-04 22:52:00,6.8,-0.9,29.87,ENE,76,0.0,2.0,70,0.00,,---,0.00,0.00,VWS V14.00,2013-02-05 03:52:00,
2013-02-04 22:57:00,6.6,-1.1,29.87,ENE,76,0.0,2.0,70,0.00,,---,0.00,0.00,VWS V14.00,2013-02-05 03:57:00,
2013-02-04 23:00:00,15.3,12.1,29.72,NW,312,0.0,0.0,87,0.00,,---,0.00,0.00,VWS V14.00,2013-02-05 04:00:00,
2013-02-04 23:02:00,6.5,-0.9,29.88,ENE,63,2.0,3.0,71,0.00,,---,0.00,0.00,VWS V14.00,2013-02-05 04:02:00,
2013-02-04 23:07:00,6.3,-1.1,29.88,ENE,63,0.0,3.0,71,0.00,,---,0.00,0.00,VWS V14.00,2013-02-05 04:07:00,
2013-02-04 23:12:00,6.2,-0.9,29.88,ENE,63,0.0,3.0,72,0.00,,---,0.00,0.00,VWS V14.00,2013-02-05 04:12:00,
2013-02-04 23:17:00,6.0,-1.1,29.88,NNE,29,3.0,4.0,72,0.00,,---,0.00,0.00,VWS V14.00,2013-02-05 04:17:00,
2013-02-04 23:22:00,5.9,-1.2,29.88,ENE,68,0.0,4.0,72,0.00,,---,0.00,0.00,VWS V14.00,2013-02-05 04:22:00,
2013-02-04 23:27:00,5.7,-1.4,29.88,ENE,68,0.0,4.0,72,0.00,,---,0.00,0.00,VWS V14.00,2013-02-05 04:27:00,
2013-02-04 23:30:00,15.5,12.3,29.72,NW,312,0.0,1.0,87,0.00,,---,0.00,0.00,VWS V14.00,2013-02-05 04:30:00,
2013-02-04 23:32:00,5.6,-1.2,29.88,ENE,68,0.0,4.0,73,0.00,,---,0.00,0.00,VWS V14.00,2013-02-05 04:32:00,
2013-02-04 23:37:00,5.4,-1.4,29.89,ENE,68,0.0,4.0,73,0.00,,---,0.00,0.00,VWS V14.00,2013-02-05 04:37:00,
2013-02-04 23:42:00,5.1,-1.6,29.89,ENE,68,0.0,4.0,73,0.00,,---,0.00,0.00,VWS V14.00,2013-02-05 04:42:00,
2013-02-04 23:47:00,4.8,-1.9,29.89,ENE,68,0.0,0.0,73,0.00,,---,0.00,0.00,VWS V14.00,2013-02-05 04:47:00,
2013-02-04 23:52:00,4.5,-1.9,29.89,ENE,68,0.0,1.0,74,0.00,,---,0.00,0.00,VWS V14.00,2013-02-05 04:52:00,
2013-02-04 23:57:00,4.2,-2.2,29.89,ENE,68,0.0,1.0,74,0.00,,---,0.00,0.00,VWS V14.00,2013-02-05 04:57:00,